Gabor Lisztes

Olheiro-Chefe - Debrecen
17 Jul 2027
Sábado
Processo

Personalidade

Adaptabilidade (20) Ambição (3) Controvérsia (8) Lealdade (8) Pressão (18) Profissionalismo (13) Espírito Esportivo (7) Temperamento (14)

Perfil

Estilo de Treinamento Democrático
Licença Continental B
Determinação 11
Gestão de Pessoas 8
Motivação 12
Disciplina 11
Satisfação no Trabalho
100%
Fadiga
0%
Função Olheiro-Chefe
Salário 33.8K p/s
Contrato 14.03.2028

Desempenho

Comportamento Bom
Eficácia do Treinamento
30%
Desenvolvimento do Jogador
45%
Prevenção de Lesões
30%
Implementação Tática
20%

Eventos Recentes

Participou de uma reunião de recrutamento agora
Participou de uma reunião de recrutamento 7d atrás
Participou de uma reunião de recrutamento 7d atrás
Recomendou um alvo de transferência 7d atrás
Participou de uma reunião de recrutamento 14d atrás
Participou de uma reunião de recrutamento 14d atrás
Recomendou um alvo de transferência 14d atrás
Recomendou um alvo de transferência 21d atrás

Monitorando agora

99
Jogador Clube Status Habilidade Confiança Observado Última observação Último voto
Attila Osváth Ferencvaros Ativo 102 / 110 44% 1 28.06.2027 -
Aleksandar Đukanović Paksi Perdido 93 / 104 44% 1 07.06.2027 -
Yousef Salech Cardiff City Ativo 133 / 124 40% 5 30.05.2027 -
Dom Ballard Leyton Orient Ativo 118 / 119 40% 4 30.05.2027 -
Tyrese Campbell Sheffield United Ativo 123 / 130 40% 3 28.05.2027 Observar
Malik Mothersille Stockport County Ativo 114 / 113 40% 2 27.05.2027 -
Cameron Archer Southampton Ativo 126 / 122 40% 2 27.05.2027 Mais informações
Mihailo Ivanović Millwall Ativo 122 / 125 40% 1 26.05.2027 -
Giorgi Kvernadze Frosinone Ativo 132 / 120 40% 7 24.05.2027 -
Josh Coburn Millwall Ativo 122 / 116 40% 4 24.05.2027 -
Friday Ubong Hearts of Oak Ativo 126 / 108 40% 5 23.05.2027 -
Jay Stansfield Birmingham Ativo 137 / 122 40% 2 23.05.2027 Mais informações
Elijah Adebayo Luton Town Ativo 127 / 121 40% 1 19.05.2027 -
Shayne Lavery Cambridge United Ativo 103 / 109 40% 1 18.05.2027 -
Camilo Durán Bloemfontein Celtic Ativo 120 / 118 40% 6 16.05.2027 -
Oli McBurnie Hull City Ativo 139 / 136 40% 3 16.05.2027 Observar
Aidomo Emakhu Oxford United Ativo 122 / 122 40% 2 12.05.2027 -
Ronan Hale Gillingham Ativo 101 / 116 40% 3 11.05.2027 -
Lamine Cissé Peterborough United Ativo 119 / 121 40% 3 08.05.2027 -
Rumarn Burrell Queens Park Rangers Ativo 129 / 127 40% 2 03.05.2027 Mais informações
Marezi Portsmouth Ativo 118 / 121 40% 1 03.05.2027 -
Iwan Morgan Grimsby Town Ativo 121 / 111 40% 2 30.04.2027 -
Fashion Sakala MC Alger Ativo 135 / 132 67% 6 29.04.2027 Aprovar
Aaron Collins Milton Keynes Dons Ativo 119 / 116 40% 5 28.04.2027 -
Veljko Birmančević Ferencvaros Ativo 144 / 137 40% 4 26.04.2027 -
Callum O'Hare Sheffield United Ativo 131 / 129 40% 2 20.04.2027 -
Ilyas Ansah Hull City Ativo 134 / 140 40% 2 19.04.2027 -
Tyreece Campbell Charlton Athletic Ativo 113 / 117 40% 1 18.04.2027 -
Christian Saydee Wigan Athletic Ativo 117 / 115 40% 2 16.04.2027 -
Mathias Jørgensen Blackburn Rovers Ativo 110 / 113 40% 2 16.04.2027 -
Kelly Saravanan Salford City Ativo 121 / 119 40% 3 14.04.2027 -
Etiosa Ighodaro Kaizer Chiefs Ativo 102 / 113 40% 6 12.04.2027 -
Hamdi Labidi Olympique Akbou Ativo 115 / 106 40% 1 09.04.2027 -
Jalen Blesa Rio Ave Ativo 125 / 113 40% 1 04.04.2027 -
Andile Manyama Ajax Cape Town Ativo 119 / 106 40% 3 03.04.2027 -
Callum Lang Preston Ativo 107 / 118 40% 1 28.03.2027 -
Sam Greenwood Bristol City Ativo 120 / 121 40% 1 28.03.2027 -
Ross Stewart Southampton Ativo 127 / 130 40% 1 24.03.2027 -
Sam Bell Bristol City Ativo 108 / 116 40% 1 21.03.2027 -
Dale Taylor Blackpool Ativo 106 / 109 40% 1 21.03.2027 -
John Yeboah Venezia Ativo 113 / 119 40% 2 19.03.2027 -
Krisztofer Horváth Ujpest Ativo 115 / 115 40% 4 03.03.2027 -
Ádin Molnár MTK Budapest Ativo 102 / 109 40% 3 02.03.2027 -
Moussakoye Diallo Stade Malien Ativo 117 / 96 40% 1 02.03.2027 -
Luther Tau SuperSport United Ativo 107 / 114 40% 4 28.02.2027 -
Jerome Karelse Golden Arrows Ativo 107 / 103 40% 2 28.02.2027 -
Ali Youssef Apollon Ativo 124 / 131 40% 3 27.02.2027 -
Jan Hubocan Ferencvaros Ativo 121 / 117 40% 8 23.02.2027 -
Róbert Polievka MTK Budapest Ativo 107 / 112 40% 4 21.02.2027 -
Konan N'Dri Lecce Ativo 127 / 123 40% 1 10.02.2027 -
Dániel Lukács Puskas Akademia Ativo 103 / 102 40% 3 09.02.2027 -
Samuel Kalu Botev Plovdiv Ativo 124 / 116 40% 2 08.02.2027 -
Gergely Nagy Fehervar Ativo 98 / 96 40% 1 18.01.2027 -
Ante Aralica Lokomotiv Sofia Ativo 106 / 105 40% 1 31.12.2026 -
Chinedu Geoffrey Krylya Sovetov Ativo 104 / 116 40% 1 31.12.2026 -
Soma Szuhodovszki MTK Budapest Ativo 111 / 97 40% 3 30.12.2026 -
Norbert Balogh Honved Ativo 116 / 99 40% 4 29.12.2026 -
Regő Szánthó MSK Zilina Ativo 90 / 96 40% 2 28.12.2026 -
Gabor Gulacsi Haladas Ativo 140 / 130 40% 5 25.12.2026 Observar
Zalán Kerezsi Vasas Ativo 119 / 101 40% 1 25.12.2026 -
Dario Vizinger NK Maribor Ativo 126 / 105 40% 3 18.12.2026 -
János Hahn Paksi Ativo 119 / 110 40% 4 16.12.2026 -
Lebo Mothiba Mamelodi Sundowns Ativo 120 / 113 40% 1 15.12.2026 -
András Németh Puskas Akademia Ativo 119 / 111 40% 1 15.12.2026 -
Ammar Ramadan DAC Dunajska Streda Ativo 125 / 120 40% 5 10.12.2026 Observar
Isaac Matondo Koper Ativo 101 / 114 40% 3 09.12.2026 -
Joel Fameyeh Puskas Akademia Ativo 95 / 116 40% 6 07.12.2026 -
Troy Parrott Betis Ativo 135 / 132 40% 2 29.11.2026 -
Wandile Duba Maritzburg United Ativo 90 / 105 40% 2 29.11.2026 -
Brayan Gil Baltika Ativo 119 / 118 40% 5 27.11.2026 -
Radek Šiler Podbrezova Ativo 100 / 116 40% 1 26.11.2026 -
Bahlul Mammadov Inter Ativo 100 / 107 40% 1 14.11.2026 -
Mykola Kukharevych Slovan Bratislava Ativo 111 / 115 40% 1 08.11.2026 -
German Onugkha Rodina Ativo 113 / 124 40% 1 02.11.2026 -
Krisztian Varga Haladas Ativo 123 / 111 40% 2 01.11.2026 -
Ákos Zuigeber Honved Ativo 102 / 98 40% 3 26.10.2026 -
Marcelo Torres Gimnasia La Plata Ativo 141 / 126 40% 1 07.10.2026 -
Sandi Elsnik NK Domzale Ativo 108 / 97 40% 2 04.10.2026 -
Gleofilo Ujpest Ativo 102 / 98 40% 1 04.10.2026 -
Armstrong Oko-Flex Levski Ativo 125 / 119 40% 1 27.09.2026 -
Manu Nieto Andorra Ativo 123 / 117 40% 1 27.09.2026 -
Ramiro Ruiz Rodríguez Atlético Tucumán Ativo 108 / 124 40% 1 25.09.2026 -
Ljupce Doriev Sogdiana Ativo 126 / 115 40% 1 24.09.2026 -
Marin Jurina MTK Budapest Ativo 113 / 99 40% 1 24.09.2026 -
Andras Nikolic Diosgyor Ativo 91 / 107 40% 1 22.09.2026 -
Tom Atcheson Blackburn Rovers Ativo 110 / 116 40% 1 21.09.2026 -
Sergio Castillo Cortulua Ativo 114 / 111 40% 1 19.09.2026 -
Nicolás Ortiz Leganés Ativo 92 / 110 40% 1 17.09.2026 -
Barna Tóth Paksi Ativo 90 / 110 40% 1 16.09.2026 Mais informações
Marcos Camarda Santiago Wanderers Ativo 125 / 98 40% 1 15.09.2026 -
Milán Demeter Foggia Ativo 93 / 95 40% 1 14.09.2026 -
Leandro Godoy CSKA Sofia Ativo 125 / 126 40% 1 10.09.2026 -
Muhamed Tijani Ujpest Ativo 106 / 106 40% 1 08.09.2026 -
Roger Hinojo Espanyol Ativo 101 / 115 40% 1 08.09.2026 -
Daniel Kelly Derby County Ativo 97 / 117 40% 1 08.09.2026 -
Luis Corredor Zulia Ativo 111 / 99 40% 1 31.08.2026 -
Ádám Varga Ferencvaros Ativo 102 / 111 40% 1 31.08.2026 -
Roberto Ozzano Parma Ativo 70 / 73 40% 1 24.08.2026 -
Callum Olusesi Tottenham Ativo 99 / 115 40% 1 21.08.2026 -